sensor_id;sensor_type;location;lat;lon;timestamp;temperature;humidity
418;DHT22;49;48.530;9.200;2022-08-19T00:01:17;25.40;67.50
418;DHT22;49;48.530;9.200;2022-08-19T00:03:44;25.10;70.30
418;DHT22;49;48.530;9.200;2022-08-19T00:06:11;24.90;71.70
418;DHT22;49;48.530;9.200;2022-08-19T00:08:38;24.80;68.30
418;DHT22;49;48.530;9.200;2022-08-19T00:11:05;24.50;75.40
418;DHT22;49;48.530;9.200;2022-08-19T00:13:33;24.70;75.60
418;DHT22;49;48.530;9.200;2022-08-19T00:16:02;24.60;73.80
418;DHT22;49;48.530;9.200;2022-08-19T00:18:29;24.50;74.60
418;DHT22;49;48.530;9.200;2022-08-19T00:21:06;24.70;76.90
418;DHT22;49;48.530;9.200;2022-08-19T00:23:35;24.70;76.80
418;DHT22;49;48.530;9.200;2022-08-19T00:26:04;24.40;79.70
418;DHT22;49;48.530;9.200;2022-08-19T00:28:32;24.20;82.80
418;DHT22;49;48.530;9.200;2022-08-19T00:31:03;24.20;82.10
418;DHT22;49;48.530;9.200;2022-08-19T00:33:30;24.00;85.20
418;DHT22;49;48.530;9.200;2022-08-19T00:35:59;23.80;88.90
418;DHT22;49;48.530;9.200;2022-08-19T00:38:27;23.70;89.40
418;DHT22;49;48.530;9.200;2022-08-19T00:40:55;24.30;87.40
418;DHT22;49;48.530;9.200;2022-08-19T00:43:24;24.20;88.50
418;DHT22;49;48.530;9.200;2022-08-19T00:45:53;24.20;89.00
418;DHT22;49;48.530;9.200;2022-08-19T00:48:22;24.20;83.50
418;DHT22;49;48.530;9.200;2022-08-19T00:50:52;24.20;87.30
418;DHT22;49;48.530;9.200;2022-08-19T00:53:23;24.10;88.40
418;DHT22;49;48.530;9.200;2022-08-19T00:55:54;24.00;89.20
418;DHT22;49;48.530;9.200;2022-08-19T00:58:27;24.10;89.70
418;DHT22;49;48.530;9.200;2022-08-19T01:00:55;24.30;88.60
418;DHT22;49;48.530;9.200;2022-08-19T01:03:24;24.40;85.30
418;DHT22;49;48.530;9.200;2022-08-19T01:05:52;24.40;85.50
418;DHT22;49;48.530;9.200;2022-08-19T01:08:21;24.40;88.20
418;DHT22;49;48.530;9.200;2022-08-19T01:10:57;24.10;89.30
418;DHT22;49;48.530;9.200;2022-08-19T01:13:33;24.40;86.10
418;DHT22;49;48.530;9.200;2022-08-19T01:16:02;24.50;86.80
418;DHT22;49;48.530;9.200;2022-08-19T01:18:32;24.20;88.00
418;DHT22;49;48.530;9.200;2022-08-19T01:21:08;24.10;89.60
418;DHT22;49;48.530;9.200;2022-08-19T01:23:38;24.30;84.80
418;DHT22;49;48.530;9.200;2022-08-19T01:26:12;24.80;86.10
418;DHT22;49;48.530;9.200;2022-08-19T01:28:41;24.60;86.70
418;DHT22;49;48.530;9.200;2022-08-19T01:31:13;24.50;85.80
418;DHT22;49;48.530;9.200;2022-08-19T01:33:41;24.40;87.60
418;DHT22;49;48.530;9.200;2022-08-19T01:36:11;23.90;89.50
418;DHT22;49;48.530;9.200;2022-08-19T01:38:42;23.80;90.70
418;DHT22;49;48.530;9.200;2022-08-19T01:41:10;24.30;84.00
418;DHT22;49;48.530;9.200;2022-08-19T01:43:38;24.80;81.60
418;DHT22;49;48.530;9.200;2022-08-19T01:46:05;24.80;84.00
418;DHT22;49;48.530;9.200;2022-08-19T01:48:36;24.40;83.40
418;DHT22;49;48.530;9.200;2022-08-19T01:51:04;24.30;84.80
418;DHT22;49;48.530;9.200;2022-08-19T01:53:31;24.40;87.00
418;DHT22;49;48.530;9.200;2022-08-19T01:56:01;24.00;89.40
418;DHT22;49;48.530;9.200;2022-08-19T01:58:31;24.00;89.10
418;DHT22;49;48.530;9.200;2022-08-19T02:00:59;24.10;88.00
418;DHT22;49;48.530;9.200;2022-08-19T02:03:26;24.10;88.60
418;DHT22;49;48.530;9.200;2022-08-19T02:05:58;24.10;89.10
418;DHT22;49;48.530;9.200;2022-08-19T02:08:26;24.30;87.20
418;DHT22;49;48.530;9.200;2022-08-19T02:10:53;24.50;84.60
418;DHT22;49;48.530;9.200;2022-08-19T02:13:22;24.50;85.40
418;DHT22;49;48.530;9.200;2022-08-19T02:15:50;24.40;86.60
418;DHT22;49;48.530;9.200;2022-08-19T02:18:17;24.10;88.30
418;DHT22;49;48.530;9.200;2022-08-19T02:20:45;23.90;88.50
418;DHT22;49;48.530;9.200;2022-08-19T02:23:14;23.80;90.00
418;DHT22;49;48.530;9.200;2022-08-19T02:25:42;23.60;90.50
418;DHT22;49;48.530;9.200;2022-08-19T02:28:10;23.60;90.40
418;DHT22;49;48.530;9.200;2022-08-19T02:30:41;23.60;90.10
418;DHT22;49;48.530;9.200;2022-08-19T02:33:08;23.80;90.00
418;DHT22;49;48.530;9.200;2022-08-19T02:35:35;23.70;89.40
418;DHT22;49;48.530;9.200;2022-08-19T02:38:02;23.80;89.50
418;DHT22;49;48.530;9.200;2022-08-19T02:40:51;23.90;89.50
418;DHT22;49;48.530;9.200;2022-08-19T02:43:19;23.80;89.50
418;DHT22;49;48.530;9.200;2022-08-19T02:45:49;23.80;89.50
418;DHT22;49;48.530;9.200;2022-08-19T02:48:17;23.60;90.60
418;DHT22;49;48.530;9.200;2022-08-19T02:50:45;23.40;90.80
418;DHT22;49;48.530;9.200;2022-08-19T02:53:12;23.50;90.80
418;DHT22;49;48.530;9.200;2022-08-19T02:55:44;23.80;89.00
418;DHT22;49;48.530;9.200;2022-08-19T02:58:12;24.30;86.80
418;DHT22;49;48.530;9.200;2022-08-19T03:00:43;24.60;82.60
418;DHT22;49;48.530;9.200;2022-08-19T03:03:12;24.80;82.30
418;DHT22;49;48.530;9.200;2022-08-19T03:05:40;24.80;84.00
418;DHT22;49;48.530;9.200;2022-08-19T03:08:07;24.50;83.80
418;DHT22;49;48.530;9.200;2022-08-19T03:10:40;24.30;85.50
418;DHT22;49;48.530;9.200;2022-08-19T03:13:10;23.80;88.00
418;DHT22;49;48.530;9.200;2022-08-19T03:15:39;23.50;89.20
418;DHT22;49;48.530;9.200;2022-08-19T03:18:07;23.30;90.40
418;DHT22;49;48.530;9.200;2022-08-19T03:20:40;23.00;91.10
418;DHT22;49;48.530;9.200;2022-08-19T03:23:07;23.00;90.70
418;DHT22;49;48.530;9.200;2022-08-19T03:25:37;23.20;91.00
418;DHT22;49;48.530;9.200;2022-08-19T03:28:04;23.10;91.20
418;DHT22;49;48.530;9.200;2022-08-19T03:30:31;23.20;90.70
418;DHT22;49;48.530;9.200;2022-08-19T03:32:58;23.50;90.00
418;DHT22;49;48.530;9.200;2022-08-19T03:35:25;23.80;90.10
418;DHT22;49;48.530;9.200;2022-08-19T03:37:54;23.80;87.80
418;DHT22;49;48.530;9.200;2022-08-19T03:40:22;24.00;86.30
418;DHT22;49;48.530;9.200;2022-08-19T03:42:49;23.90;88.20
418;DHT22;49;48.530;9.200;2022-08-19T03:45:16;24.00;87.00
418;DHT22;49;48.530;9.200;2022-08-19T03:47:43;24.10;86.80
418;DHT22;49;48.530;9.200;2022-08-19T03:50:11;24.20;86.50
418;DHT22;49;48.530;9.200;2022-08-19T03:52:38;24.30;85.90
418;DHT22;49;48.530;9.200;2022-08-19T03:55:07;24.40;84.50
418;DHT22;49;48.530;9.200;2022-08-19T03:57:34;24.10;85.30
418;DHT22;49;48.530;9.200;2022-08-19T04:00:03;24.10;86.50
418;DHT22;49;48.530;9.200;2022-08-19T04:02:31;24.20;86.40
418;DHT22;49;48.530;9.200;2022-08-19T04:04:58;24.10;86.60
418;DHT22;49;48.530;9.200;2022-08-19T04:07:25;24.40;83.20
418;DHT22;49;48.530;9.200;2022-08-19T04:09:52;24.50;83.40
418;DHT22;49;48.530;9.200;2022-08-19T04:12:21;24.60;82.40
418;DHT22;49;48.530;9.200;2022-08-19T04:14:48;24.30;83.90
418;DHT22;49;48.530;9.200;2022-08-19T04:17:15;24.30;84.90
418;DHT22;49;48.530;9.200;2022-08-19T04:19:42;24.10;86.40
418;DHT22;49;48.530;9.200;2022-08-19T04:22:10;24.10;85.80
418;DHT22;49;48.530;9.200;2022-08-19T04:24:38;24.20;84.50
418;DHT22;49;48.530;9.200;2022-08-19T04:27:05;24.20;84.90
418;DHT22;49;48.530;9.200;2022-08-19T04:29:34;24.20;85.10
418;DHT22;49;48.530;9.200;2022-08-19T04:32:01;24.40;82.40
418;DHT22;49;48.530;9.200;2022-08-19T04:34:29;24.50;83.40
418;DHT22;49;48.530;9.200;2022-08-19T04:36:58;24.40;83.30
418;DHT22;49;48.530;9.200;2022-08-19T04:39:28;23.90;85.20
418;DHT22;49;48.530;9.200;2022-08-19T04:42:10;23.70;86.60
418;DHT22;49;48.530;9.200;2022-08-19T04:44:57;23.40;87.60
418;DHT22;49;48.530;9.200;2022-08-19T04:47:24;23.40;89.10
418;DHT22;49;48.530;9.200;2022-08-19T04:49:52;23.30;89.90
418;DHT22;49;48.530;9.200;2022-08-19T04:52:19;23.10;90.40
418;DHT22;49;48.530;9.200;2022-08-19T04:54:46;23.20;90.40
418;DHT22;49;48.530;9.200;2022-08-19T04:57:13;23.30;90.00
418;DHT22;49;48.530;9.200;2022-08-19T04:59:40;23.30;90.00
418;DHT22;49;48.530;9.200;2022-08-19T05:02:09;23.00;90.40
418;DHT22;49;48.530;9.200;2022-08-19T05:04:36;23.00;91.10
418;DHT22;49;48.530;9.200;2022-08-19T05:07:05;22.90;91.50
418;DHT22;49;48.530;9.200;2022-08-19T05:09:32;22.80;92.00
418;DHT22;49;48.530;9.200;2022-08-19T05:12:00;22.70;92.20
418;DHT22;49;48.530;9.200;2022-08-19T05:14:27;22.80;91.80
418;DHT22;49;48.530;9.200;2022-08-19T05:16:54;23.00;91.60
418;DHT22;49;48.530;9.200;2022-08-19T05:19:23;23.30;90.50
418;DHT22;49;48.530;9.200;2022-08-19T05:22:07;23.40;90.60
418;DHT22;49;48.530;9.200;2022-08-19T05:24:52;23.30;91.00
418;DHT22;49;48.530;9.200;2022-08-19T05:27:20;23.10;90.90
418;DHT22;49;48.530;9.200;2022-08-19T05:29:47;23.30;90.60
418;DHT22;49;48.530;9.200;2022-08-19T05:32:14;23.50;89.90
418;DHT22;49;48.530;9.200;2022-08-19T05:34:43;23.60;89.30
418;DHT22;49;48.530;9.200;2022-08-19T05:37:10;23.40;90.00
418;DHT22;49;48.530;9.200;2022-08-19T05:39:38;23.50;89.20
418;DHT22;49;48.530;9.200;2022-08-19T05:42:08;23.60;89.30
418;DHT22;49;48.530;9.200;2022-08-19T05:44:38;23.50;89.20
418;DHT22;49;48.530;9.200;2022-08-19T05:47:08;23.50;90.00
418;DHT22;49;48.530;9.200;2022-08-19T05:49:36;23.50;90.10
418;DHT22;49;48.530;9.200;2022-08-19T05:52:07;23.70;87.80
418;DHT22;49;48.530;9.200;2022-08-19T05:54:34;23.90;87.10
418;DHT22;49;48.530;9.200;2022-08-19T05:57:05;23.70;89.00
418;DHT22;49;48.530;9.200;2022-08-19T05:59:33;23.80;88.90
418;DHT22;49;48.530;9.200;2022-08-19T06:02:01;23.80;88.70
418;DHT22;49;48.530;9.200;2022-08-19T06:04:32;23.80;89.10
418;DHT22;49;48.530;9.200;2022-08-19T06:06:59;23.80;88.30
418;DHT22;49;48.530;9.200;2022-08-19T06:09:29;23.90;87.80
418;DHT22;49;48.530;9.200;2022-08-19T06:11:58;23.70;89.40
418;DHT22;49;48.530;9.200;2022-08-19T06:14:31;24.00;88.20
418;DHT22;49;48.530;9.200;2022-08-19T06:17:00;24.10;85.50
418;DHT22;49;48.530;9.200;2022-08-19T06:19:29;24.10;87.50
418;DHT22;49;48.530;9.200;2022-08-19T06:21:58;24.20;84.20
418;DHT22;49;48.530;9.200;2022-08-19T06:24:30;24.60;80.90
418;DHT22;49;48.530;9.200;2022-08-19T06:27:09;25.10;79.70
418;DHT22;49;48.530;9.200;2022-08-19T06:29:36;25.50;77.50
418;DHT22;49;48.530;9.200;2022-08-19T06:32:03;25.40;80.20
418;DHT22;49;48.530;9.200;2022-08-19T06:34:32;25.50;73.90
418;DHT22;49;48.530;9.200;2022-08-19T06:37:00;25.60;75.90
418;DHT22;49;48.530;9.200;2022-08-19T06:39:32;25.50;77.50
418;DHT22;49;48.530;9.200;2022-08-19T06:42:01;25.40;80.30
418;DHT22;49;48.530;9.200;2022-08-19T06:44:33;25.40;80.20
418;DHT22;49;48.530;9.200;2022-08-19T06:47:03;25.50;79.00
418;DHT22;49;48.530;9.200;2022-08-19T06:49:30;25.70;76.10
418;DHT22;49;48.530;9.200;2022-08-19T06:51:58;25.70;74.60
418;DHT22;49;48.530;9.200;2022-08-19T06:54:26;25.70;76.60
418;DHT22;49;48.530;9.200;2022-08-19T06:56:56;25.80;76.40
418;DHT22;49;48.530;9.200;2022-08-19T06:59:24;26.00;72.50
418;DHT22;49;48.530;9.200;2022-08-19T07:01:55;26.10;76.80
418;DHT22;49;48.530;9.200;2022-08-19T07:04:26;26.00;74.70
418;DHT22;49;48.530;9.200;2022-08-19T07:06:57;26.00;71.00
418;DHT22;49;48.530;9.200;2022-08-19T07:09:25;26.00;76.70
418;DHT22;49;48.530;9.200;2022-08-19T07:11:53;25.80;74.40
418;DHT22;49;48.530;9.200;2022-08-19T07:14:24;25.70;77.70
418;DHT22;49;48.530;9.200;2022-08-19T07:16:53;25.40;78.80
418;DHT22;49;48.530;9.200;2022-08-19T07:19:22;25.30;76.20
418;DHT22;49;48.530;9.200;2022-08-19T07:21:50;25.20;78.90
418;DHT22;49;48.530;9.200;2022-08-19T07:24:18;25.40;77.50
418;DHT22;49;48.530;9.200;2022-08-19T07:26:46;25.40;79.20
418;DHT22;49;48.530;9.200;2022-08-19T07:29:13;25.20;78.30
418;DHT22;49;48.530;9.200;2022-08-19T07:31:41;25.30;79.30
418;DHT22;49;48.530;9.200;2022-08-19T07:34:10;25.40;79.60
418;DHT22;49;48.530;9.200;2022-08-19T07:36:40;25.40;74.10
418;DHT22;49;48.530;9.200;2022-08-19T07:39:10;25.60;77.50
418;DHT22;49;48.530;9.200;2022-08-19T07:41:38;25.70;77.10
418;DHT22;49;48.530;9.200;2022-08-19T07:44:07;25.70;75.20
418;DHT22;49;48.530;9.200;2022-08-19T07:46:36;25.80;77.80
418;DHT22;49;48.530;9.200;2022-08-19T07:49:06;25.60;75.90
418;DHT22;49;48.530;9.200;2022-08-19T07:51:34;25.70;76.10
418;DHT22;49;48.530;9.200;2022-08-19T07:54:01;25.70;77.70
418;DHT22;49;48.530;9.200;2022-08-19T07:56:28;25.60;79.30
418;DHT22;49;48.530;9.200;2022-08-19T07:58:55;25.50;79.70
418;DHT22;49;48.530;9.200;2022-08-19T08:01:24;25.50;78.40
418;DHT22;49;48.530;9.200;2022-08-19T08:03:53;25.50;78.70
418;DHT22;49;48.530;9.200;2022-08-19T08:06:39;25.40;78.90
418;DHT22;49;48.530;9.200;2022-08-19T08:09:26;25.40;79.70
418;DHT22;49;48.530;9.200;2022-08-19T08:11:55;25.30;79.60
418;DHT22;49;48.530;9.200;2022-08-19T08:14:29;25.40;77.50
418;DHT22;49;48.530;9.200;2022-08-19T08:16:58;25.50;75.50
418;DHT22;49;48.530;9.200;2022-08-19T08:19:26;25.50;77.60
418;DHT22;49;48.530;9.200;2022-08-19T08:21:56;25.60;75.80
418;DHT22;49;48.530;9.200;2022-08-19T08:24:25;25.70;75.50
418;DHT22;49;48.530;9.200;2022-08-19T08:26:53;25.70;74.90
418;DHT22;49;48.530;9.200;2022-08-19T08:29:20;25.80;72.80
418;DHT22;49;48.530;9.200;2022-08-19T08:31:47;25.80;75.70
418;DHT22;49;48.530;9.200;2022-08-19T08:34:14;25.70;76.80
418;DHT22;49;48.530;9.200;2022-08-19T08:36:43;25.30;76.80
418;DHT22;49;48.530;9.200;2022-08-19T08:39:13;25.30;75.90
418;DHT22;49;48.530;9.200;2022-08-19T08:41:47;25.50;71.70
418;DHT22;49;48.530;9.200;2022-08-19T08:44:20;25.60;72.60
418;DHT22;49;48.530;9.200;2022-08-19T08:46:50;25.60;74.20
418;DHT22;49;48.530;9.200;2022-08-19T08:49:31;25.50;75.00
418;DHT22;49;48.530;9.200;2022-08-19T08:52:04;25.40;77.40
418;DHT22;49;48.530;9.200;2022-08-19T08:54:37;25.40;76.20
418;DHT22;49;48.530;9.200;2022-08-19T08:57:09;25.40;76.60
418;DHT22;49;48.530;9.200;2022-08-19T08:59:40;25.50;72.30
418;DHT22;49;48.530;9.200;2022-08-19T09:02:08;25.60;75.10
418;DHT22;49;48.530;9.200;2022-08-19T09:04:37;25.50;76.40
418;DHT22;49;48.530;9.200;2022-08-19T09:07:18;25.30;78.30
418;DHT22;49;48.530;9.200;2022-08-19T09:09:50;25.30;77.90
418;DHT22;49;48.530;9.200;2022-08-19T09:12:30;25.30;74.40
418;DHT22;49;48.530;9.200;2022-08-19T09:15:02;25.30;76.70
418;DHT22;49;48.530;9.200;2022-08-19T09:17:31;25.40;77.60
418;DHT22;49;48.530;9.200;2022-08-19T09:20:11;25.50;73.20
418;DHT22;49;48.530;9.200;2022-08-19T09:22:41;25.50;76.90
418;DHT22;49;48.530;9.200;2022-08-19T09:25:13;25.50;76.80
418;DHT22;49;48.530;9.200;2022-08-19T09:27:42;25.30;77.40
418;DHT22;49;48.530;9.200;2022-08-19T09:30:13;25.00;79.50
418;DHT22;49;48.530;9.200;2022-08-19T09:32:40;25.00;78.20
418;DHT22;49;48.530;9.200;2022-08-19T09:35:09;25.20;77.30
418;DHT22;49;48.530;9.200;2022-08-19T09:37:36;25.40;77.40
418;DHT22;49;48.530;9.200;2022-08-19T09:40:04;25.50;77.50
418;DHT22;49;48.530;9.200;2022-08-19T09:42:33;25.50;74.30
418;DHT22;49;48.530;9.200;2022-08-19T09:45:00;25.50;73.00
418;DHT22;49;48.530;9.200;2022-08-19T09:47:28;25.50;75.80
418;DHT22;49;48.530;9.200;2022-08-19T09:49:55;25.60;77.60
418;DHT22;49;48.530;9.200;2022-08-19T09:52:23;25.70;73.80
418;DHT22;49;48.530;9.200;2022-08-19T09:54:52;25.50;78.50
418;DHT22;49;48.530;9.200;2022-08-19T09:57:19;25.40;80.00
418;DHT22;49;48.530;9.200;2022-08-19T09:59:47;25.40;78.60
418;DHT22;49;48.530;9.200;2022-08-19T10:02:14;25.40;75.60
418;DHT22;49;48.530;9.200;2022-08-19T10:04:41;25.50;75.50
418;DHT22;49;48.530;9.200;2022-08-19T10:07:26;25.60;76.80
418;DHT22;49;48.530;9.200;2022-08-19T10:09:53;25.70;77.70
418;DHT22;49;48.530;9.200;2022-08-19T10:12:20;25.70;77.70
418;DHT22;49;48.530;9.200;2022-08-19T10:14:49;25.60;78.50
418;DHT22;49;48.530;9.200;2022-08-19T10:17:19;25.60;77.60
418;DHT22;49;48.530;9.200;2022-08-19T10:19:47;25.50;76.00
418;DHT22;49;48.530;9.200;2022-08-19T10:22:17;25.40;77.50
418;DHT22;49;48.530;9.200;2022-08-19T10:24:45;25.30;79.30
418;DHT22;49;48.530;9.200;2022-08-19T10:27:13;25.40;78.80
418;DHT22;49;48.530;9.200;2022-08-19T10:29:41;25.30;80.30
418;DHT22;49;48.530;9.200;2022-08-19T10:32:11;25.00;80.80
418;DHT22;49;48.530;9.200;2022-08-19T10:34:40;25.10;81.40
418;DHT22;49;48.530;9.200;2022-08-19T10:37:08;25.20;80.40
418;DHT22;49;48.530;9.200;2022-08-19T10:39:36;25.40;79.90
418;DHT22;49;48.530;9.200;2022-08-19T10:42:05;25.50;79.00
418;DHT22;49;48.530;9.200;2022-08-19T10:44:33;25.50;80.30
418;DHT22;49;48.530;9.200;2022-08-19T10:47:01;25.50;79.90
418;DHT22;49;48.530;9.200;2022-08-19T10:49:32;25.60;77.90
418;DHT22;49;48.530;9.200;2022-08-19T10:52:20;25.50;79.70
418;DHT22;49;48.530;9.200;2022-08-19T10:55:01;25.50;77.50
418;DHT22;49;48.530;9.200;2022-08-19T10:57:46;25.10;80.60
418;DHT22;49;48.530;9.200;2022-08-19T11:00:14;24.40;85.20
418;DHT22;49;48.530;9.200;2022-08-19T11:02:43;23.90;88.30
418;DHT22;49;48.530;9.200;2022-08-19T11:05:11;23.40;91.10
418;DHT22;49;48.530;9.200;2022-08-19T11:07:40;23.80;90.70
418;DHT22;49;48.530;9.200;2022-08-19T11:10:12;24.00;89.80
418;DHT22;49;48.530;9.200;2022-08-19T11:12:40;24.30;86.10
418;DHT22;49;48.530;9.200;2022-08-19T11:15:08;24.70;84.20
418;DHT22;49;48.530;9.200;2022-08-19T11:17:37;24.70;85.50
418;DHT22;49;48.530;9.200;2022-08-19T11:20:11;24.40;87.30
418;DHT22;49;48.530;9.200;2022-08-19T11:22:40;24.20;88.00
418;DHT22;49;48.530;9.200;2022-08-19T11:25:08;24.40;86.10
418;DHT22;49;48.530;9.200;2022-08-19T11:27:37;24.60;86.10
418;DHT22;49;48.530;9.200;2022-08-19T11:30:06;24.80;85.40
418;DHT22;49;48.530;9.200;2022-08-19T11:32:33;24.80;81.50
418;DHT22;49;48.530;9.200;2022-08-19T11:35:00;25.00;84.90
418;DHT22;49;48.530;9.200;2022-08-19T11:37:29;25.00;83.80
418;DHT22;49;48.530;9.200;2022-08-19T11:39:56;25.10;84.40
418;DHT22;49;48.530;9.200;2022-08-19T11:42:23;25.10;83.10
418;DHT22;49;48.530;9.200;2022-08-19T11:45:07;25.00;83.90
418;DHT22;49;48.530;9.200;2022-08-19T11:47:36;24.50;84.90
418;DHT22;49;48.530;9.200;2022-08-19T11:50:04;24.60;87.70
418;DHT22;49;48.530;9.200;2022-08-19T11:52:33;24.50;87.80
418;DHT22;49;48.530;9.200;2022-08-19T11:55:00;24.50;87.90
418;DHT22;49;48.530;9.200;2022-08-19T11:57:28;24.70;87.20
418;DHT22;49;48.530;9.200;2022-08-19T11:59:55;24.90;85.80
418;DHT22;49;48.530;9.200;2022-08-19T12:02:22;24.80;87.20
418;DHT22;49;48.530;9.200;2022-08-19T12:04:49;24.50;88.80
418;DHT22;49;48.530;9.200;2022-08-19T12:07:17;24.50;89.30
418;DHT22;49;48.530;9.200;2022-08-19T12:09:45;24.30;89.90
418;DHT22;49;48.530;9.200;2022-08-19T12:12:12;24.30;89.90
418;DHT22;49;48.530;9.200;2022-08-19T12:14:39;24.00;90.70
418;DHT22;49;48.530;9.200;2022-08-19T12:17:06;24.30;90.40
418;DHT22;49;48.530;9.200;2022-08-19T12:19:36;24.40;90.20
418;DHT22;49;48.530;9.200;2022-08-19T12:22:04;24.60;90.10
418;DHT22;49;48.530;9.200;2022-08-19T12:24:33;24.80;88.80
418;DHT22;49;48.530;9.200;2022-08-19T12:27:01;24.60;90.10
418;DHT22;49;48.530;9.200;2022-08-19T12:29:29;24.50;90.00
418;DHT22;49;48.530;9.200;2022-08-19T12:31:57;24.60;90.10
418;DHT22;49;48.530;9.200;2022-08-19T12:34:28;24.80;86.30
418;DHT22;49;48.530;9.200;2022-08-19T12:36:57;25.10;86.20
418;DHT22;49;48.530;9.200;2022-08-19T12:39:24;24.90;87.80
418;DHT22;49;48.530;9.200;2022-08-19T12:41:54;25.00;87.50
418;DHT22;49;48.530;9.200;2022-08-19T12:44:25;25.20;85.80
418;DHT22;49;48.530;9.200;2022-08-19T12:46:56;25.30;86.70
418;DHT22;49;48.530;9.200;2022-08-19T12:49:27;25.30;85.60
418;DHT22;49;48.530;9.200;2022-08-19T12:51:59;25.30;84.80
418;DHT22;49;48.530;9.200;2022-08-19T12:54:26;25.50;86.10
418;DHT22;49;48.530;9.200;2022-08-19T12:56:56;25.50;85.10
418;DHT22;49;48.530;9.200;2022-08-19T12:59:27;25.60;84.40
418;DHT22;49;48.530;9.200;2022-08-19T13:01:54;25.80;83.50
418;DHT22;49;48.530;9.200;2022-08-19T13:04:22;25.80;82.40
418;DHT22;49;48.530;9.200;2022-08-19T13:06:51;25.90;81.00
418;DHT22;49;48.530;9.200;2022-08-19T13:09:19;26.00;78.50
418;DHT22;49;48.530;9.200;2022-08-19T13:11:48;25.90;79.50
418;DHT22;49;48.530;9.200;2022-08-19T13:14:15;25.90;77.80
418;DHT22;49;48.530;9.200;2022-08-19T13:16:43;26.00;75.90
418;DHT22;49;48.530;9.200;2022-08-19T13:19:12;26.20;77.50
418;DHT22;49;48.530;9.200;2022-08-19T13:21:39;26.30;78.10
418;DHT22;49;48.530;9.200;2022-08-19T13:24:07;26.30;76.70
418;DHT22;49;48.530;9.200;2022-08-19T13:26:34;26.40;71.70
418;DHT22;49;48.530;9.200;2022-08-19T13:29:01;26.40;78.20
418;DHT22;49;48.530;9.200;2022-08-19T13:31:47;26.20;78.00
418;DHT22;49;48.530;9.200;2022-08-19T13:34:43;26.10;76.60
418;DHT22;49;48.530;9.200;2022-08-19T13:37:10;26.20;77.10
418;DHT22;49;48.530;9.200;2022-08-19T13:39:37;26.30;78.10
418;DHT22;49;48.530;9.200;2022-08-19T13:42:05;26.30;77.70
418;DHT22;49;48.530;9.200;2022-08-19T13:44:33;26.20;76.70
418;DHT22;49;48.530;9.200;2022-08-19T13:47:05;26.10;77.10
418;DHT22;49;48.530;9.200;2022-08-19T13:49:34;26.20;74.20
418;DHT22;49;48.530;9.200;2022-08-19T13:52:04;26.20;78.00
418;DHT22;49;48.530;9.200;2022-08-19T13:54:32;26.10;76.70
418;DHT22;49;48.530;9.200;2022-08-19T13:57:13;25.90;79.10
418;DHT22;49;48.530;9.200;2022-08-19T13:59:40;25.80;79.60
418;DHT22;49;48.530;9.200;2022-08-19T14:02:10;25.60;80.70
418;DHT22;49;48.530;9.200;2022-08-19T14:04:37;25.10;82.40
418;DHT22;49;48.530;9.200;2022-08-19T14:07:05;24.90;82.60
418;DHT22;49;48.530;9.200;2022-08-19T14:09:32;25.10;82.00
418;DHT22;49;48.530;9.200;2022-08-19T14:12:01;25.20;77.30
418;DHT22;49;48.530;9.200;2022-08-19T14:14:28;25.40;80.00
418;DHT22;49;48.530;9.200;2022-08-19T14:17:10;25.40;79.40
418;DHT22;49;48.530;9.200;2022-08-19T14:19:37;25.40;80.20
418;DHT22;49;48.530;9.200;2022-08-19T14:22:07;25.20;80.90
418;DHT22;49;48.530;9.200;2022-08-19T14:24:37;25.30;77.50
418;DHT22;49;48.530;9.200;2022-08-19T14:27:05;25.30;78.40
418;DHT22;49;48.530;9.200;2022-08-19T14:29:32;25.30;80.60
418;DHT22;49;48.530;9.200;2022-08-19T14:32:00;25.20;78.80
418;DHT22;49;48.530;9.200;2022-08-19T14:34:29;25.30;80.80
418;DHT22;49;48.530;9.200;2022-08-19T14:36:59;25.40;77.50
418;DHT22;49;48.530;9.200;2022-08-19T14:39:26;25.20;82.40
418;DHT22;49;48.530;9.200;2022-08-19T14:41:53;25.00;82.80
418;DHT22;49;48.530;9.200;2022-08-19T14:44:20;25.10;81.90
418;DHT22;49;48.530;9.200;2022-08-19T14:46:49;25.10;82.60
418;DHT22;49;48.530;9.200;2022-08-19T14:49:17;25.20;80.90
418;DHT22;49;48.530;9.200;2022-08-19T14:51:46;25.10;81.40
418;DHT22;49;48.530;9.200;2022-08-19T14:54:15;25.00;79.60
418;DHT22;49;48.530;9.200;2022-08-19T14:56:42;25.20;81.10
418;DHT22;49;48.530;9.200;2022-08-19T14:59:09;25.00;82.00
418;DHT22;49;48.530;9.200;2022-08-19T15:01:46;25.10;81.90
418;DHT22;49;48.530;9.200;2022-08-19T15:04:16;25.20;79.00
418;DHT22;49;48.530;9.200;2022-08-19T15:06:46;25.20;80.80
418;DHT22;49;48.530;9.200;2022-08-19T15:09:17;24.90;82.60
418;DHT22;49;48.530;9.200;2022-08-19T15:11:47;24.80;83.10
418;DHT22;49;48.530;9.200;2022-08-19T15:14:16;24.90;82.70
418;DHT22;49;48.530;9.200;2022-08-19T15:16:43;25.00;82.50
418;DHT22;49;48.530;9.200;2022-08-19T15:19:10;24.80;80.70
418;DHT22;49;48.530;9.200;2022-08-19T15:21:38;25.00;81.20
418;DHT22;49;48.530;9.200;2022-08-19T15:24:11;25.20;78.50
418;DHT22;49;48.530;9.200;2022-08-19T15:26:43;25.40;76.50
418;DHT22;49;48.530;9.200;2022-08-19T15:29:16;25.60;77.60
418;DHT22;49;48.530;9.200;2022-08-19T15:31:47;25.80;80.60
418;DHT22;49;48.530;9.200;2022-08-19T15:34:16;25.60;80.30
418;DHT22;49;48.530;9.200;2022-08-19T15:36:44;25.90;80.00
418;DHT22;49;48.530;9.200;2022-08-19T15:39:27;25.90;79.60
418;DHT22;49;48.530;9.200;2022-08-19T15:41:56;25.70;80.20
418;DHT22;49;48.530;9.200;2022-08-19T15:44:26;25.80;78.50
418;DHT22;49;48.530;9.200;2022-08-19T15:46:54;25.80;79.20
418;DHT22;49;48.530;9.200;2022-08-19T15:49:22;25.70;79.90
418;DHT22;49;48.530;9.200;2022-08-19T15:51:50;25.80;76.80
418;DHT22;49;48.530;9.200;2022-08-19T15:54:20;25.70;78.60
418;DHT22;49;48.530;9.200;2022-08-19T15:56:52;25.70;81.00
418;DHT22;49;48.530;9.200;2022-08-19T15:59:37;25.70;79.50
418;DHT22;49;48.530;9.200;2022-08-19T16:02:25;25.70;77.80
418;DHT22;49;48.530;9.200;2022-08-19T16:05:14;25.70;77.20
418;DHT22;49;48.530;9.200;2022-08-19T16:07:59;25.70;79.40
418;DHT22;49;48.530;9.200;2022-08-19T16:10:27;25.90;77.80
418;DHT22;49;48.530;9.200;2022-08-19T16:12:56;26.00;78.70
418;DHT22;49;48.530;9.200;2022-08-19T16:15:28;25.80;77.80
418;DHT22;49;48.530;9.200;2022-08-19T16:17:56;26.00;77.30
418;DHT22;49;48.530;9.200;2022-08-19T16:20:24;26.00;73.60
418;DHT22;49;48.530;9.200;2022-08-19T16:22:52;26.00;77.90
418;DHT22;49;48.530;9.200;2022-08-19T16:25:19;25.90;76.40
418;DHT22;49;48.530;9.200;2022-08-19T16:27:51;25.70;76.90
418;DHT22;49;48.530;9.200;2022-08-19T16:30:20;25.60;80.70
418;DHT22;49;48.530;9.200;2022-08-19T16:32:47;25.40;78.90
418;DHT22;49;48.530;9.200;2022-08-19T16:35:14;25.20;82.30
418;DHT22;49;48.530;9.200;2022-08-19T16:37:41;25.40;81.70
418;DHT22;49;48.530;9.200;2022-08-19T16:40:09;25.20;84.10
418;DHT22;49;48.530;9.200;2022-08-19T16:42:36;25.10;84.80
418;DHT22;49;48.530;9.200;2022-08-19T16:45:06;25.10;85.40
418;DHT22;49;48.530;9.200;2022-08-19T16:47:36;25.50;83.00
418;DHT22;49;48.530;9.200;2022-08-19T16:50:04;25.70;81.70
418;DHT22;49;48.530;9.200;2022-08-19T16:52:32;26.00;78.60
418;DHT22;49;48.530;9.200;2022-08-19T16:55:01;26.20;78.10
418;DHT22;49;48.530;9.200;2022-08-19T16:57:28;26.30;78.60
418;DHT22;49;48.530;9.200;2022-08-19T16:59:56;26.40;78.30
418;DHT22;49;48.530;9.200;2022-08-19T17:02:23;26.40;76.90
418;DHT22;49;48.530;9.200;2022-08-19T17:04:53;26.50;76.40
418;DHT22;49;48.530;9.200;2022-08-19T17:07:20;26.50;76.90